Bayle, Illinois
Current Conditions -  °F | °C
As of 5:55 AM on Monday 24 Nov 2014 (Local Time) from K1H2 Reporting Station
Overcast Overcast  
Wind Chill: 31°   Ceiling: 1600
Heat Index: 42°   Visibility: NA
Dew Point: 37°   Wind: 28mph
Humidity: 83%   Direction: 270°W
Pressure: 29.33"   Gusts: 38mph
Location:  39.1031°N, 89.1042°W
Report Text: K1H2 241155Z AUTO 27024G33KT SCT012 BKN016 OVC020 06/03 A2933 RMK AO2 60017 70069 T00550029 10131 20055 PWINO
Loading
Personal Weather Stations






























Interactive Weather Map New forecast layout! Learn more

10-Day Weather Forecast

Advertisements
Track Severe Weather on mobile